sensor_id;sensor_type;location;lat;lon;timestamp;P1;durP1;ratioP1;P2;durP2;ratioP2
19826;SDS011;10074;52.018;4.726;2022-10-15T00:04:36;3.20;;;1.48;;
19826;SDS011;10074;52.018;4.726;2022-10-15T00:09:36;1.07;;;1.00;;
19826;SDS011;10074;52.018;4.726;2022-10-15T00:14:37;2.23;;;1.57;;
19826;SDS011;10074;52.018;4.726;2022-10-15T00:19:37;1.23;;;0.93;;
19826;SDS011;10074;52.018;4.726;2022-10-15T00:24:37;1.03;;;0.70;;
19826;SDS011;10074;52.018;4.726;2022-10-15T00:29:38;1.53;;;1.13;;
19826;SDS011;10074;52.018;4.726;2022-10-15T00:34:38;3.10;;;1.27;;
19826;SDS011;10074;52.018;4.726;2022-10-15T00:39:38;5.57;;;1.20;;
19826;SDS011;10074;52.018;4.726;2022-10-15T00:44:46;0.40;;;0.40;;
19826;SDS011;10074;52.018;4.726;2022-10-15T00:49:54;1.23;;;1.13;;
19826;SDS011;10074;52.018;4.726;2022-10-15T00:55:00;0.70;;;0.70;;
19826;SDS011;10074;52.018;4.726;2022-10-15T01:00:06;0.97;;;0.97;;
19826;SDS011;10074;52.018;4.726;2022-10-15T01:05:09;1.47;;;1.37;;
19826;SDS011;10074;52.018;4.726;2022-10-15T01:10:11;0.70;;;0.70;;
19826;SDS011;10074;52.018;4.726;2022-10-15T01:31:05;1.03;;;0.93;;
19826;SDS011;10074;52.018;4.726;2022-10-15T01:36:21;0.70;;;0.70;;
19826;SDS011;10074;52.018;4.726;2022-10-15T01:41:33;1.33;;;0.97;;
19826;SDS011;10074;52.018;4.726;2022-10-15T01:51:46;1.23;;;1.13;;
19826;SDS011;10074;52.018;4.726;2022-10-15T01:56:49;1.20;;;1.10;;
19826;SDS011;10074;52.018;4.726;2022-10-15T02:01:51;1.90;;;1.63;;
19826;SDS011;10074;52.018;4.726;2022-10-15T02:07:12;1.83;;;1.00;;
19826;SDS011;10074;52.018;4.726;2022-10-15T02:12:29;1.67;;;1.37;;
19826;SDS011;10074;52.018;4.726;2022-10-15T02:23:03;1.30;;;1.20;;
19826;SDS011;10074;52.018;4.726;2022-10-15T02:28:20;0.97;;;0.97;;
19826;SDS011;10074;52.018;4.726;2022-10-15T02:33:24;1.40;;;0.87;;
19826;SDS011;10074;52.018;4.726;2022-10-15T02:38:26;1.50;;;1.37;;
19826;SDS011;10074;52.018;4.726;2022-10-15T02:43:31;0.90;;;0.90;;
19826;SDS011;10074;52.018;4.726;2022-10-15T02:48:32;1.17;;;0.88;;
19826;SDS011;10074;52.018;4.726;2022-10-15T02:53:33;1.10;;;0.90;;
19826;SDS011;10074;52.018;4.726;2022-10-15T02:58:33;0.93;;;0.90;;
19826;SDS011;10074;52.018;4.726;2022-10-15T03:03:34;2.10;;;1.00;;
19826;SDS011;10074;52.018;4.726;2022-10-15T03:08:34;2.40;;;1.00;;
19826;SDS011;10074;52.018;4.726;2022-10-15T03:13:35;0.93;;;0.93;;
19826;SDS011;10074;52.018;4.726;2022-10-15T03:18:36;0.90;;;0.90;;
19826;SDS011;10074;52.018;4.726;2022-10-15T03:23:37;0.60;;;0.53;;
19826;SDS011;10074;52.018;4.726;2022-10-15T03:28:37;0.77;;;0.77;;
19826;SDS011;10074;52.018;4.726;2022-10-15T03:33:38;0.60;;;0.60;;
19826;SDS011;10074;52.018;4.726;2022-10-15T03:38:38;0.53;;;0.53;;
19826;SDS011;10074;52.018;4.726;2022-10-15T03:43:38;1.53;;;0.97;;
19826;SDS011;10074;52.018;4.726;2022-10-15T03:48:39;0.90;;;0.90;;
19826;SDS011;10074;52.018;4.726;2022-10-15T03:53:39;0.80;;;0.67;;
19826;SDS011;10074;52.018;4.726;2022-10-15T03:58:39;0.95;;;0.95;;
19826;SDS011;10074;52.018;4.726;2022-10-15T04:03:40;1.10;;;1.00;;
19826;SDS011;10074;52.018;4.726;2022-10-15T04:08:41;0.93;;;0.93;;
19826;SDS011;10074;52.018;4.726;2022-10-15T04:13:41;0.90;;;0.70;;
19826;SDS011;10074;52.018;4.726;2022-10-15T04:18:42;0.90;;;0.85;;
19826;SDS011;10074;52.018;4.726;2022-10-15T04:23:42;0.60;;;0.60;;
19826;SDS011;10074;52.018;4.726;2022-10-15T04:28:43;1.10;;;1.00;;
19826;SDS011;10074;52.018;4.726;2022-10-15T04:33:43;1.90;;;0.93;;
19826;SDS011;10074;52.018;4.726;2022-10-15T04:38:47;1.40;;;1.20;;
19826;SDS011;10074;52.018;4.726;2022-10-15T04:43:47;0.75;;;0.68;;
19826;SDS011;10074;52.018;4.726;2022-10-15T04:48:48;1.50;;;1.40;;
19826;SDS011;10074;52.018;4.726;2022-10-15T04:53:48;1.02;;;0.88;;
19826;SDS011;10074;52.018;4.726;2022-10-15T04:58:49;1.70;;;1.00;;
19826;SDS011;10074;52.018;4.726;2022-10-15T05:03:50;0.73;;;0.73;;
19826;SDS011;10074;52.018;4.726;2022-10-15T05:08:50;1.40;;;1.00;;
19826;SDS011;10074;52.018;4.726;2022-10-15T05:13:51;0.52;;;0.52;;
19826;SDS011;10074;52.018;4.726;2022-10-15T05:18:54;0.73;;;0.73;;
19826;SDS011;10074;52.018;4.726;2022-10-15T05:23:57;0.83;;;0.80;;
19826;SDS011;10074;52.018;4.726;2022-10-15T05:28:58;0.90;;;0.90;;
19826;SDS011;10074;52.018;4.726;2022-10-15T05:34:04;1.40;;;1.07;;
19826;SDS011;10074;52.018;4.726;2022-10-15T05:39:06;1.00;;;0.93;;
19826;SDS011;10074;52.018;4.726;2022-10-15T05:44:09;1.57;;;1.30;;
19826;SDS011;10074;52.018;4.726;2022-10-15T05:49:09;0.93;;;0.83;;
19826;SDS011;10074;52.018;4.726;2022-10-15T05:54:09;0.73;;;0.73;;
19826;SDS011;10074;52.018;4.726;2022-10-15T05:59:10;3.60;;;1.67;;
19826;SDS011;10074;52.018;4.726;2022-10-15T06:04:10;1.10;;;0.97;;
19826;SDS011;10074;52.018;4.726;2022-10-15T06:09:10;1.20;;;1.10;;
19826;SDS011;10074;52.018;4.726;2022-10-15T06:14:11;1.57;;;0.93;;
19826;SDS011;10074;52.018;4.726;2022-10-15T06:19:11;1.30;;;0.77;;
19826;SDS011;10074;52.018;4.726;2022-10-15T06:24:14;0.97;;;0.87;;
19826;SDS011;10074;52.018;4.726;2022-10-15T06:29:14;0.90;;;0.90;;
19826;SDS011;10074;52.018;4.726;2022-10-15T06:34:14;0.77;;;0.77;;
19826;SDS011;10074;52.018;4.726;2022-10-15T06:39:15;1.30;;;1.07;;
19826;SDS011;10074;52.018;4.726;2022-10-15T06:44:15;2.40;;;1.00;;
19826;SDS011;10074;52.018;4.726;2022-10-15T06:49:15;1.48;;;1.38;;
19826;SDS011;10074;52.018;4.726;2022-10-15T06:54:16;3.22;;;1.85;;
19826;SDS011;10074;52.018;4.726;2022-10-15T06:59:16;2.10;;;1.27;;
19826;SDS011;10074;52.018;4.726;2022-10-15T07:04:16;1.17;;;1.07;;
19826;SDS011;10074;52.018;4.726;2022-10-15T07:09:17;1.40;;;1.10;;
19826;SDS011;10074;52.018;4.726;2022-10-15T07:14:18;1.30;;;0.90;;
19826;SDS011;10074;52.018;4.726;2022-10-15T07:19:18;1.97;;;1.00;;
19826;SDS011;10074;52.018;4.726;2022-10-15T07:24:18;2.67;;;1.60;;
19826;SDS011;10074;52.018;4.726;2022-10-15T07:29:19;2.43;;;1.80;;
19826;SDS011;10074;52.018;4.726;2022-10-15T07:34:19;3.63;;;1.60;;
19826;SDS011;10074;52.018;4.726;2022-10-15T07:39:21;3.93;;;2.33;;
19826;SDS011;10074;52.018;4.726;2022-10-15T07:44:22;5.03;;;3.60;;
19826;SDS011;10074;52.018;4.726;2022-10-15T07:49:22;3.00;;;2.30;;
19826;SDS011;10074;52.018;4.726;2022-10-15T07:54:22;2.80;;;2.40;;
19826;SDS011;10074;52.018;4.726;2022-10-15T07:59:23;10.47;;;2.47;;
19826;SDS011;10074;52.018;4.726;2022-10-15T08:04:23;3.60;;;2.80;;
19826;SDS011;10074;52.018;4.726;2022-10-15T08:09:23;6.60;;;3.47;;
19826;SDS011;10074;52.018;4.726;2022-10-15T08:14:24;2.37;;;1.47;;
19826;SDS011;10074;52.018;4.726;2022-10-15T08:19:24;6.47;;;2.33;;
19826;SDS011;10074;52.018;4.726;2022-10-15T08:24:24;2.37;;;2.03;;
19826;SDS011;10074;52.018;4.726;2022-10-15T08:29:25;3.37;;;2.30;;
19826;SDS011;10074;52.018;4.726;2022-10-15T08:34:25;1.83;;;1.73;;
19826;SDS011;10074;52.018;4.726;2022-10-15T08:39:25;3.43;;;2.27;;
19826;SDS011;10074;52.018;4.726;2022-10-15T08:44:29;1.63;;;1.50;;
19826;SDS011;10074;52.018;4.726;2022-10-15T08:54:50;1.67;;;1.57;;
19826;SDS011;10074;52.018;4.726;2022-10-15T08:59:57;3.77;;;1.70;;
19826;SDS011;10074;52.018;4.726;2022-10-15T09:10:17;1.87;;;1.67;;
19826;SDS011;10074;52.018;4.726;2022-10-15T09:15:35;2.45;;;1.50;;
19826;SDS011;10074;52.018;4.726;2022-10-15T09:20:40;1.80;;;1.57;;
19826;SDS011;10074;52.018;4.726;2022-10-15T09:25:40;2.53;;;2.13;;
19826;SDS011;10074;52.018;4.726;2022-10-15T09:30:46;1.60;;;1.50;;
19826;SDS011;10074;52.018;4.726;2022-10-15T09:35:51;2.43;;;2.03;;
19826;SDS011;10074;52.018;4.726;2022-10-15T09:45:59;4.67;;;2.23;;
19826;SDS011;10074;52.018;4.726;2022-10-15T09:51:05;3.77;;;2.63;;
19826;SDS011;10074;52.018;4.726;2022-10-15T09:56:17;12.68;;;2.13;;
19826;SDS011;10074;52.018;4.726;2022-10-15T10:01:22;2.60;;;1.90;;
19826;SDS011;10074;52.018;4.726;2022-10-15T10:06:24;2.23;;;2.10;;
19826;SDS011;10074;52.018;4.726;2022-10-15T10:11:25;1.77;;;1.67;;
19826;SDS011;10074;52.018;4.726;2022-10-15T10:16:26;2.63;;;1.87;;
19826;SDS011;10074;52.018;4.726;2022-10-15T10:21:30;2.80;;;2.57;;
19826;SDS011;10074;52.018;4.726;2022-10-15T10:26:33;2.70;;;1.87;;
19826;SDS011;10074;52.018;4.726;2022-10-15T10:31:35;1.20;;;1.10;;
19826;SDS011;10074;52.018;4.726;2022-10-15T10:36:41;3.63;;;2.50;;
19826;SDS011;10074;52.018;4.726;2022-10-15T10:41:50;2.13;;;1.33;;
19826;SDS011;10074;52.018;4.726;2022-10-15T10:52:51;1.75;;;1.20;;
19826;SDS011;10074;52.018;4.726;2022-10-15T10:57:56;2.97;;;2.67;;
19826;SDS011;10074;52.018;4.726;2022-10-15T11:02:58;1.93;;;1.73;;
19826;SDS011;10074;52.018;4.726;2022-10-15T11:13:49;2.33;;;1.80;;
19826;SDS011;10074;52.018;4.726;2022-10-15T11:50:58;1.37;;;1.10;;
19826;SDS011;10074;52.018;4.726;2022-10-15T11:56:12;1.88;;;1.30;;
19826;SDS011;10074;52.018;4.726;2022-10-15T12:01:28;3.33;;;1.92;;
19826;SDS011;10074;52.018;4.726;2022-10-15T12:06:38;1.25;;;1.15;;
19826;SDS011;10074;52.018;4.726;2022-10-15T12:11:48;2.80;;;1.50;;
19826;SDS011;10074;52.018;4.726;2022-10-15T12:22:36;2.30;;;1.43;;
19826;SDS011;10074;52.018;4.726;2022-10-15T12:27:38;1.77;;;1.67;;
19826;SDS011;10074;52.018;4.726;2022-10-15T12:32:39;0.68;;;0.68;;
19826;SDS011;10074;52.018;4.726;2022-10-15T12:37:42;1.40;;;1.30;;
19826;SDS011;10074;52.018;4.726;2022-10-15T12:42:48;2.27;;;2.07;;
19826;SDS011;10074;52.018;4.726;2022-10-15T12:47:54;1.27;;;1.17;;
19826;SDS011;10074;52.018;4.726;2022-10-15T12:58:32;1.50;;;1.10;;
19826;SDS011;10074;52.018;4.726;2022-10-15T13:03:38;2.30;;;1.73;;
19826;SDS011;10074;52.018;4.726;2022-10-15T13:20:00;1.23;;;1.17;;
19826;SDS011;10074;52.018;4.726;2022-10-15T13:25:16;0.97;;;0.97;;
19826;SDS011;10074;52.018;4.726;2022-10-15T13:30:16;0.93;;;0.90;;
19826;SDS011;10074;52.018;4.726;2022-10-15T13:35:18;1.40;;;1.30;;
19826;SDS011;10074;52.018;4.726;2022-10-15T13:40:23;1.67;;;1.05;;
19826;SDS011;10074;52.018;4.726;2022-10-15T13:45:25;1.20;;;1.00;;
19826;SDS011;10074;52.018;4.726;2022-10-15T13:50:27;1.23;;;1.10;;
19826;SDS011;10074;52.018;4.726;2022-10-15T13:55:36;1.13;;;1.05;;
19826;SDS011;10074;52.018;4.726;2022-10-15T14:00:38;4.13;;;2.15;;
19826;SDS011;10074;52.018;4.726;2022-10-15T14:05:39;1.08;;;0.90;;
19826;SDS011;10074;52.018;4.726;2022-10-15T14:10:41;1.70;;;1.42;;
19826;SDS011;10074;52.018;4.726;2022-10-15T14:15:46;1.30;;;1.10;;
19826;SDS011;10074;52.018;4.726;2022-10-15T14:20:50;1.08;;;1.08;;
19826;SDS011;10074;52.018;4.726;2022-10-15T14:25:52;1.05;;;0.95;;
19826;SDS011;10074;52.018;4.726;2022-10-15T14:30:57;1.70;;;1.17;;
19826;SDS011;10074;52.018;4.726;2022-10-15T14:36:03;0.85;;;0.85;;
19826;SDS011;10074;52.018;4.726;2022-10-15T14:41:17;1.35;;;1.05;;
19826;SDS011;10074;52.018;4.726;2022-10-15T14:46:24;1.02;;;0.85;;
19826;SDS011;10074;52.018;4.726;2022-10-15T14:51:30;0.95;;;0.95;;
19826;SDS011;10074;52.018;4.726;2022-10-15T14:56:30;1.95;;;1.05;;
19826;SDS011;10074;52.018;4.726;2022-10-15T15:01:32;1.23;;;1.00;;
19826;SDS011;10074;52.018;4.726;2022-10-15T15:06:34;0.98;;;0.98;;
19826;SDS011;10074;52.018;4.726;2022-10-15T15:11:34;2.50;;;1.48;;
19826;SDS011;10074;52.018;4.726;2022-10-15T15:16:36;0.80;;;0.80;;
19826;SDS011;10074;52.018;4.726;2022-10-15T15:21:36;1.20;;;0.90;;
19826;SDS011;10074;52.018;4.726;2022-10-15T15:26:36;0.98;;;0.80;;
19826;SDS011;10074;52.018;4.726;2022-10-15T15:31:36;1.45;;;1.15;;
19826;SDS011;10074;52.018;4.726;2022-10-15T15:36:37;1.98;;;1.88;;
19826;SDS011;10074;52.018;4.726;2022-10-15T15:41:37;1.40;;;1.30;;
19826;SDS011;10074;52.018;4.726;2022-10-15T15:46:37;0.82;;;0.82;;
19826;SDS011;10074;52.018;4.726;2022-10-15T15:51:39;0.70;;;0.55;;
19826;SDS011;10074;52.018;4.726;2022-10-15T15:56:40;0.77;;;0.75;;
19826;SDS011;10074;52.018;4.726;2022-10-15T16:01:40;1.05;;;0.80;;
19826;SDS011;10074;52.018;4.726;2022-10-15T16:06:40;1.33;;;1.23;;
19826;SDS011;10074;52.018;4.726;2022-10-15T16:11:41;0.52;;;0.52;;
19826;SDS011;10074;52.018;4.726;2022-10-15T16:16:41;0.63;;;0.63;;
19826;SDS011;10074;52.018;4.726;2022-10-15T16:21:42;1.00;;;0.80;;
19826;SDS011;10074;52.018;4.726;2022-10-15T16:26:43;1.02;;;0.82;;
19826;SDS011;10074;52.018;4.726;2022-10-15T16:31:43;1.33;;;1.23;;
19826;SDS011;10074;52.018;4.726;2022-10-15T16:36:43;0.50;;;0.50;;
19826;SDS011;10074;52.018;4.726;2022-10-15T16:41:43;0.60;;;0.60;;
19826;SDS011;10074;52.018;4.726;2022-10-15T16:46:44;0.88;;;0.70;;
19826;SDS011;10074;52.018;4.726;2022-10-15T16:51:44;1.00;;;0.75;;
19826;SDS011;10074;52.018;4.726;2022-10-15T16:56:44;1.05;;;0.63;;
19826;SDS011;10074;52.018;4.726;2022-10-15T17:01:45;1.17;;;0.50;;
19826;SDS011;10074;52.018;4.726;2022-10-15T17:06:45;0.60;;;0.60;;
19826;SDS011;10074;52.018;4.726;2022-10-15T17:11:46;0.65;;;0.65;;
19826;SDS011;10074;52.018;4.726;2022-10-15T17:16:48;1.02;;;0.95;;
19826;SDS011;10074;52.018;4.726;2022-10-15T17:21:50;1.02;;;0.90;;
19826;SDS011;10074;52.018;4.726;2022-10-15T17:26:51;0.60;;;0.50;;
19826;SDS011;10074;52.018;4.726;2022-10-15T17:31:53;2.22;;;1.55;;
19826;SDS011;10074;52.018;4.726;2022-10-15T17:36:53;1.15;;;1.05;;
19826;SDS011;10074;52.018;4.726;2022-10-15T17:41:55;0.53;;;0.53;;
19826;SDS011;10074;52.018;4.726;2022-10-15T17:46:55;1.63;;;1.52;;
19826;SDS011;10074;52.018;4.726;2022-10-15T17:51:55;0.85;;;0.82;;
19826;SDS011;10074;52.018;4.726;2022-10-15T17:56:55;0.77;;;0.68;;
19826;SDS011;10074;52.018;4.726;2022-10-15T18:01:56;1.03;;;0.80;;
19826;SDS011;10074;52.018;4.726;2022-10-15T18:06:57;0.60;;;0.40;;
19826;SDS011;10074;52.018;4.726;2022-10-15T18:11:58;0.55;;;0.50;;
19826;SDS011;10074;52.018;4.726;2022-10-15T18:16:59;0.70;;;0.70;;
19826;SDS011;10074;52.018;4.726;2022-10-15T18:22:00;0.88;;;0.77;;
19826;SDS011;10074;52.018;4.726;2022-10-15T18:27:00;0.70;;;0.70;;
19826;SDS011;10074;52.018;4.726;2022-10-15T18:32:01;2.57;;;1.10;;
19826;SDS011;10074;52.018;4.726;2022-10-15T18:37:01;1.00;;;0.63;;
19826;SDS011;10074;52.018;4.726;2022-10-15T18:42:02;0.70;;;0.68;;
19826;SDS011;10074;52.018;4.726;2022-10-15T18:47:02;1.00;;;0.90;;
19826;SDS011;10074;52.018;4.726;2022-10-15T18:52:02;0.50;;;0.50;;
19826;SDS011;10074;52.018;4.726;2022-10-15T18:57:03;0.50;;;0.50;;
19826;SDS011;10074;52.018;4.726;2022-10-15T19:02:04;0.50;;;0.50;;
19826;SDS011;10074;52.018;4.726;2022-10-15T19:07:04;0.93;;;0.73;;
19826;SDS011;10074;52.018;4.726;2022-10-15T19:12:04;1.63;;;1.20;;
19826;SDS011;10074;52.018;4.726;2022-10-15T19:17:05;0.70;;;0.70;;
19826;SDS011;10074;52.018;4.726;2022-10-15T19:22:05;0.85;;;0.85;;
19826;SDS011;10074;52.018;4.726;2022-10-15T19:27:05;1.23;;;0.63;;
19826;SDS011;10074;52.018;4.726;2022-10-15T19:32:06;0.73;;;0.73;;
19826;SDS011;10074;52.018;4.726;2022-10-15T19:37:06;1.38;;;0.88;;
19826;SDS011;10074;52.018;4.726;2022-10-15T19:42:07;0.60;;;0.50;;
19826;SDS011;10074;52.018;4.726;2022-10-15T19:47:08;0.60;;;0.60;;
19826;SDS011;10074;52.018;4.726;2022-10-15T19:52:08;1.30;;;0.90;;
19826;SDS011;10074;52.018;4.726;2022-10-15T19:57:08;0.85;;;0.50;;
19826;SDS011;10074;52.018;4.726;2022-10-15T20:02:11;0.95;;;0.70;;
19826;SDS011;10074;52.018;4.726;2022-10-15T20:07:11;1.40;;;0.60;;
19826;SDS011;10074;52.018;4.726;2022-10-15T20:12:11;1.50;;;0.93;;
19826;SDS011;10074;52.018;4.726;2022-10-15T20:17:12;0.60;;;0.52;;
19826;SDS011;10074;52.018;4.726;2022-10-15T20:22:12;0.70;;;0.60;;
19826;SDS011;10074;52.018;4.726;2022-10-15T20:27:12;1.03;;;0.90;;
19826;SDS011;10074;52.018;4.726;2022-10-15T20:32:13;6.38;;;2.03;;
19826;SDS011;10074;52.018;4.726;2022-10-15T20:37:15;0.90;;;0.70;;
19826;SDS011;10074;52.018;4.726;2022-10-15T20:42:16;1.08;;;0.73;;
19826;SDS011;10074;52.018;4.726;2022-10-15T20:47:16;0.53;;;0.53;;
19826;SDS011;10074;52.018;4.726;2022-10-15T20:52:17;0.63;;;0.63;;
19826;SDS011;10074;52.018;4.726;2022-10-15T20:57:19;1.35;;;0.65;;
19826;SDS011;10074;52.018;4.726;2022-10-15T21:02:19;0.67;;;0.50;;
19826;SDS011;10074;52.018;4.726;2022-10-15T21:07:19;0.63;;;0.63;;
19826;SDS011;10074;52.018;4.726;2022-10-15T21:12:20;0.47;;;0.47;;
19826;SDS011;10074;52.018;4.726;2022-10-15T21:17:20;0.53;;;0.50;;
19826;SDS011;10074;52.018;4.726;2022-10-15T21:22:20;1.73;;;1.10;;
19826;SDS011;10074;52.018;4.726;2022-10-15T21:27:21;1.20;;;0.77;;
19826;SDS011;10074;52.018;4.726;2022-10-15T21:32:21;0.77;;;0.77;;
19826;SDS011;10074;52.018;4.726;2022-10-15T21:37:22;0.70;;;0.70;;
19826;SDS011;10074;52.018;4.726;2022-10-15T21:42:23;0.50;;;0.50;;
19826;SDS011;10074;52.018;4.726;2022-10-15T21:47:25;0.70;;;0.70;;
19826;SDS011;10074;52.018;4.726;2022-10-15T21:52:25;0.90;;;0.60;;
19826;SDS011;10074;52.018;4.726;2022-10-15T21:57:26;0.70;;;0.63;;
19826;SDS011;10074;52.018;4.726;2022-10-15T22:02:26;1.08;;;0.73;;
19826;SDS011;10074;52.018;4.726;2022-10-15T22:07:26;0.63;;;0.63;;
19826;SDS011;10074;52.018;4.726;2022-10-15T22:12:27;1.47;;;0.50;;
19826;SDS011;10074;52.018;4.726;2022-10-15T22:17:27;0.67;;;0.60;;
19826;SDS011;10074;52.018;4.726;2022-10-15T22:22:28;0.40;;;0.40;;
19826;SDS011;10074;52.018;4.726;2022-10-15T22:27:28;0.57;;;0.57;;
19826;SDS011;10074;52.018;4.726;2022-10-15T22:32:28;2.73;;;1.53;;
19826;SDS011;10074;52.018;4.726;2022-10-15T22:37:29;0.68;;;0.63;;
19826;SDS011;10074;52.018;4.726;2022-10-15T22:42:29;2.10;;;0.53;;
19826;SDS011;10074;52.018;4.726;2022-10-15T22:47:29;1.05;;;0.55;;
19826;SDS011;10074;52.018;4.726;2022-10-15T22:52:30;1.50;;;0.60;;
19826;SDS011;10074;52.018;4.726;2022-10-15T22:57:30;0.80;;;0.60;;
19826;SDS011;10074;52.018;4.726;2022-10-15T23:02:31;0.50;;;0.50;;
19826;SDS011;10074;52.018;4.726;2022-10-15T23:07:31;0.90;;;0.70;;
19826;SDS011;10074;52.018;4.726;2022-10-15T23:12:31;0.70;;;0.70;;
19826;SDS011;10074;52.018;4.726;2022-10-15T23:17:31;1.52;;;1.05;;
19826;SDS011;10074;52.018;4.726;2022-10-15T23:22:32;0.35;;;0.35;;
19826;SDS011;10074;52.018;4.726;2022-10-15T23:27:32;1.23;;;0.70;;
19826;SDS011;10074;52.018;4.726;2022-10-15T23:32:32;0.55;;;0.55;;
19826;SDS011;10074;52.018;4.726;2022-10-15T23:37:33;0.73;;;0.40;;
19826;SDS011;10074;52.018;4.726;2022-10-15T23:42:33;0.70;;;0.50;;
19826;SDS011;10074;52.018;4.726;2022-10-15T23:47:33;0.70;;;0.40;;
19826;SDS011;10074;52.018;4.726;2022-10-15T23:52:34;0.47;;;0.47;;
19826;SDS011;10074;52.018;4.726;2022-10-15T23:57:34;1.07;;;0.60;;
